Time;durP1;ratioP1;P1;durP2;ratioP2;P2;SDS_P1;SDS_P2;PMS_P1;PMS_P2;Temp;Humidity;BMP_temperature;BMP_pressure;BME280_temperature;BME280_humidity;BME280_pressure;Samples;Min_cycle;Max_cycle;Signal;HPM_P1;HPM_P2
2024/04/24 00:01:10;;;;;;;2.83;2.60;;;12.00;81.00;;;;;;5464449;26;20566;-49
2024/04/24 00:03:43;;;;;;;2.73;2.53;;;12.10;81.10;;;;;;5473579;26;20513;-48
2024/04/24 00:06:13;;;;;;;4.73;3.70;;;12.10;81.20;;;;;;5460421;26;20846;-48
2024/04/24 00:08:43;;;;;;;3.07;2.87;;;12.00;82.40;;;;;;5462178;26;20454;-49
2024/04/24 00:11:13;;;;;;;2.90;2.70;;;12.00;81.20;;;;;;5466166;26;20889;-49
2024/04/24 00:13:40;;;;;;;3.20;3.00;;;12.00;81.30;;;;;;5467740;26;20549;-49
2024/04/24 00:16:10;;;;;;;2.80;2.30;;;12.10;81.40;;;;;;5465059;26;21077;-47
2024/04/24 00:18:43;;;;;;;3.20;3.00;;;12.00;81.40;;;;;;5470666;26;20455;-47
2024/04/24 00:21:13;;;;;;;3.20;2.93;;;12.00;81.50;;;;;;5448205;26;20459;-49
2024/04/24 00:23:43;;;;;;;3.00;2.70;;;12.00;81.40;;;;;;5461389;26;20716;-47
2024/04/24 00:26:12;;;;;;;3.50;3.20;;;12.00;81.50;;;;;;5464064;26;20468;-47
2024/04/24 00:28:42;;;;;;;3.30;3.00;;;12.00;81.50;;;;;;5471862;26;20572;-48
2024/04/24 00:31:12;;;;;;;2.83;2.57;;;12.00;81.50;;;;;;5456737;26;20465;-51
2024/04/24 00:33:44;;;;;;;3.00;2.70;;;12.00;81.60;;;;;;5463883;26;20515;-47
2024/04/24 00:36:14;;;;;;;4.83;2.37;;;12.00;81.70;;;;;;5441536;26;20545;-47
2024/04/24 00:38:45;;;;;;;2.60;2.40;;;12.00;82.90;;;;;;5470899;26;20648;-48
2024/04/24 00:41:19;;;;;;;3.10;2.70;;;12.00;81.80;;;;;;5447247;26;20518;-50
2024/04/24 00:43:49;;;;;;;2.50;2.30;;;12.00;81.70;;;;;;5451609;26;20966;-47
2024/04/24 00:46:21;;;;;;;2.27;2.10;;;12.00;81.70;;;;;;5448824;26;20455;-47
2024/04/24 00:48:54;;;;;;;2.83;2.50;;;12.00;81.80;;;;;;5459802;26;20562;-47
2024/04/24 00:51:25;;;;;;;2.83;2.13;;;12.00;83.00;;;;;;5444711;26;20536;-47
2024/04/24 00:53:56;;;;;;;2.20;2.00;;;12.00;81.80;;;;;;5470045;26;20450;-47
2024/04/24 00:56:26;;;;;;;3.70;2.93;;;12.00;81.80;;;;;;5469207;26;20508;-49
2024/04/24 00:59:00;;;;;;;3.27;2.30;;;12.00;81.80;;;;;;5463221;25;21134;-49
2024/04/24 01:01:30;;;;;;;2.40;2.20;;;12.00;81.80;;;;;;5464993;26;20465;-47
2024/04/24 01:04:03;;;;;;;2.93;2.63;;;12.00;81.90;;;;;;5470989;26;20462;-47
2024/04/24 01:06:33;;;;;;;2.63;2.43;;;12.00;81.90;;;;;;5461098;26;21081;-47
2024/04/24 01:09:02;;;;;;;2.43;2.23;;;12.00;81.90;;;;;;5468059;26;20462;-48
2024/04/24 01:11:42;;;;;;;3.73;2.50;;;12.00;82.00;;;;;;5461437;26;20470;-47
2024/04/24 01:14:12;;;;;;;2.30;2.10;;;12.00;82.00;;;;;;5462587;26;20667;-47
2024/04/24 01:16:43;;;;;;;2.47;2.27;;;12.00;82.10;;;;;;5467032;26;20507;-49
2024/04/24 01:19:35;;;;;;;2.73;2.53;;;12.00;82.10;;;;;;5468831;26;20583;-48
2024/04/24 01:22:13;;;;;;;4.33;2.40;;;11.90;82.10;;;;;;5462709;26;20513;-48
2024/04/24 01:24:53;;;;;;;2.03;1.83;;;11.90;82.00;;;;;;5465943;26;20469;-48
2024/04/24 01:27:25;;;;;;;2.57;2.30;;;12.00;82.10;;;;;;5428417;26;20467;-47
2024/04/24 01:29:55;;;;;;;2.47;2.27;;;11.90;83.10;;;;;;5467813;26;20460;-48
2024/04/24 01:32:25;;;;;;;2.90;2.37;;;12.00;82.10;;;;;;5465292;26;20562;-48
2024/04/24 01:34:55;;;;;;;2.43;2.23;;;11.90;82.10;;;;;;5465296;26;20462;-47
2024/04/24 01:37:25;;;;;;;2.33;2.13;;;11.90;82.10;;;;;;5469605;26;20450;-47
2024/04/24 01:39:57;;;;;;;2.47;2.27;;;11.90;82.10;;;;;;5461944;26;20508;-48
2024/04/24 01:42:30;;;;;;;3.97;2.20;;;11.90;82.10;;;;;;5473451;26;20469;-48
2024/04/24 01:45:00;;;;;;;2.17;2.07;;;11.90;82.20;;;;;;5462392;26;20465;-47
2024/04/24 01:47:30;;;;;;;2.23;2.03;;;11.90;82.20;;;;;;5466968;26;20457;-47
2024/04/24 01:50:00;;;;;;;1.80;1.70;;;11.90;82.30;;;;;;5466617;26;20543;-49
2024/04/24 01:52:27;;;;;;;1.97;1.87;;;11.90;82.30;;;;;;5470893;26;20622;-48
2024/04/24 01:54:57;;;;;;;1.90;1.77;;;11.90;82.30;;;;;;5464954;26;20456;-47
2024/04/24 01:57:29;;;;;;;2.23;1.70;;;11.90;82.30;;;;;;5468518;26;20454;-49
2024/04/24 01:59:59;;;;;;;2.27;2.07;;;11.90;82.30;;;;;;5467463;26;20582;-48
2024/04/24 02:02:29;;;;;;;2.03;1.80;;;11.90;82.30;;;;;;5469315;26;20521;-48
2024/04/24 02:05:01;;;;;;;2.43;2.00;;;11.90;82.30;;;;;;5467492;26;20472;-48
2024/04/24 02:07:31;;;;;;;2.13;1.93;;;11.90;82.30;;;;;;5464061;26;20518;-48
2024/04/24 02:10:04;;;;;;;2.70;1.77;;;11.90;82.30;;;;;;5472389;26;21126;-48
2024/04/24 02:12:36;;;;;;;2.40;1.83;;;11.90;82.30;;;;;;5470219;26;20883;-47
2024/04/24 02:15:04;;;;;;;1.87;1.77;;;11.90;82.40;;;;;;5468631;26;20457;-47
2024/04/24 02:17:34;;;;;;;2.13;1.97;;;11.90;82.30;;;;;;5462620;26;20470;-47
2024/04/24 02:20:04;;;;;;;2.30;1.90;;;11.90;82.40;;;;;;5470359;26;20466;-48
2024/04/24 02:22:34;;;;;;;2.40;2.03;;;11.90;82.40;;;;;;5468062;26;20604;-47
2024/04/24 02:27:56;;;;;;;3.63;2.40;;;11.80;82.20;;;;;;5469394;26;20455;-49
2024/04/24 02:30:26;;;;;;;1.93;1.80;;;11.90;82.40;;;;;;5465712;26;20585;-47
2024/04/24 02:32:55;;;;;;;2.33;1.60;;;11.90;82.40;;;;;;5466810;26;20811;-48
2024/04/24 02:35:25;;;;;;;1.80;1.70;;;11.90;82.50;;;;;;5467669;26;20572;-48
2024/04/24 02:37:55;;;;;;;2.50;2.30;;;11.80;82.40;;;;;;5461574;26;20503;-48
2024/04/24 02:40:25;;;;;;;2.20;1.50;;;11.90;82.50;;;;;;5468074;26;20469;-49
2024/04/24 02:42:57;;;;;;;2.87;2.27;;;11.90;82.60;;;;;;5473255;26;20462;-47
2024/04/24 02:45:27;;;;;;;2.17;1.90;;;11.80;82.40;;;;;;5466402;26;20545;-49
2024/04/24 02:47:57;;;;;;;3.40;1.70;;;11.90;82.40;;;;;;5469697;26;20567;-47
2024/04/24 02:50:27;;;;;;;1.63;1.53;;;11.80;82.40;;;;;;5461131;26;21026;-47
2024/04/24 02:52:57;;;;;;;1.90;1.80;;;11.90;82.50;;;;;;5463475;26;20519;-47
2024/04/24 02:55:27;;;;;;;2.90;1.83;;;11.80;82.10;;;;;;5466922;26;20882;-47
2024/04/24 02:57:59;;;;;;;2.07;1.60;;;11.80;82.40;;;;;;5462720;26;20476;-49
2024/04/24 03:00:29;;;;;;;3.03;2.03;;;11.80;82.50;;;;;;5465174;25;20459;-47
2024/04/24 03:02:59;;;;;;;2.67;1.93;;;11.80;82.50;;;;;;5465932;26;20457;-48
2024/04/24 03:05:29;;;;;;;1.93;1.83;;;11.80;82.50;;;;;;5475077;26;21259;-47
2024/04/24 03:07:59;;;;;;;2.00;1.80;;;11.80;82.40;;;;;;5464995;26;20466;-47
2024/04/24 03:10:29;;;;;;;2.13;1.93;;;11.80;82.50;;;;;;5459630;26;20574;-47
2024/04/24 03:13:01;;;;;;;2.40;2.10;;;11.80;82.50;;;;;;5465699;26;20526;-48
2024/04/24 03:15:31;;;;;;;2.73;1.67;;;11.80;82.20;;;;;;5462484;26;20580;-48
2024/04/24 03:18:01;;;;;;;2.77;1.70;;;11.80;82.20;;;;;;5466114;26;20862;-47
2024/04/24 03:20:31;;;;;;;2.27;1.70;;;11.80;82.20;;;;;;5465617;26;21041;-48
2024/04/24 03:23:01;;;;;;;1.97;1.73;;;11.80;82.10;;;;;;5465486;26;20570;-47
2024/04/24 03:25:34;;;;;;;2.17;1.73;;;11.80;82.30;;;;;;5473489;26;20521;-49
2024/04/24 03:28:07;;;;;;;1.70;1.43;;;11.80;82.30;;;;;;5471677;26;20582;-49
2024/04/24 03:30:37;;;;;;;1.30;1.20;;;11.80;82.10;;;;;;5460106;26;21051;-48
2024/04/24 03:33:07;;;;;;;2.10;1.80;;;11.80;82.20;;;;;;5471789;26;20568;-48
2024/04/24 03:35:37;;;;;;;2.00;1.60;;;11.70;82.20;;;;;;5468570;26;21017;-48
2024/04/24 03:38:06;;;;;;;1.67;1.57;;;11.80;82.30;;;;;;5468899;26;20506;-48
2024/04/24 03:40:36;;;;;;;3.13;1.70;;;11.80;82.10;;;;;;5466929;26;20465;-48
2024/04/24 03:43:09;;;;;;;1.60;1.43;;;11.80;82.20;;;;;;5468428;26;20800;-49
2024/04/24 03:45:39;;;;;;;2.17;1.83;;;11.80;82.30;;;;;;5469007;26;20529;-48
2024/04/24 03:48:09;;;;;;;2.33;1.50;;;11.70;82.10;;;;;;5471130;26;20456;-48
2024/04/24 03:50:39;;;;;;;2.50;1.97;;;11.70;82.00;;;;;;5459486;26;20515;-49
2024/04/24 03:53:09;;;;;;;1.40;1.30;;;11.70;82.20;;;;;;5479942;26;21010;-48
2024/04/24 03:55:40;;;;;;;3.17;1.50;;;11.70;82.30;;;;;;5471818;26;20459;-49
2024/04/24 03:58:10;;;;;;;1.90;1.43;;;11.70;82.20;;;;;;5460520;26;20512;-48
2024/04/24 04:00:40;;;;;;;1.87;1.60;;;11.70;82.40;;;;;;5445074;26;20800;-48
2024/04/24 04:03:10;;;;;;;1.50;1.40;;;11.70;82.20;;;;;;5448762;26;20451;-48
2024/04/24 04:05:40;;;;;;;1.80;1.53;;;11.70;82.50;;;;;;5454497;26;20861;-48
2024/04/24 04:08:10;;;;;;;2.17;1.70;;;11.70;82.20;;;;;;5459655;26;20461;-47
2024/04/24 04:10:40;;;;;;;1.90;1.80;;;11.70;82.10;;;;;;5476960;26;20501;-48
2024/04/24 04:13:13;;;;;;;2.50;1.50;;;11.70;82.20;;;;;;5472043;26;20443;-47
2024/04/24 04:15:40;;;;;;;3.10;1.70;;;11.70;82.30;;;;;;5461407;26;20466;-48
2024/04/24 04:18:10;;;;;;;1.53;1.43;;;11.70;82.50;;;;;;5454265;26;20556;-48
2024/04/24 04:20:40;;;;;;;2.70;2.10;;;11.70;82.50;;;;;;5462565;26;20595;-47
2024/04/24 04:23:10;;;;;;;1.40;1.30;;;11.70;82.40;;;;;;5456014;26;20475;-48
2024/04/24 04:25:40;;;;;;;2.40;1.37;;;11.70;82.40;;;;;;5471165;26;20549;-47
2024/04/24 04:28:12;;;;;;;1.83;1.60;;;11.70;82.50;;;;;;5471782;26;20465;-48
2024/04/24 04:30:45;;;;;;;1.90;1.50;;;11.70;82.60;;;;;;5458771;26;20585;-51
2024/04/24 04:33:15;;;;;;;1.37;1.27;;;11.60;82.50;;;;;;5470253;26;20448;-48
2024/04/24 04:35:45;;;;;;;1.63;1.40;;;11.60;82.60;;;;;;5472742;26;20551;-48
2024/04/24 04:38:15;;;;;;;1.50;1.40;;;11.60;82.70;;;;;;5463292;26;20520;-49
2024/04/24 04:40:45;;;;;;;1.50;1.40;;;11.60;82.60;;;;;;5469064;26;20576;-47
2024/04/24 04:43:18;;;;;;;1.63;1.47;;;11.60;82.70;;;;;;5462774;26;20799;-49
2024/04/24 04:45:52;;;;;;;1.73;1.30;;;11.60;82.70;;;;;;5453701;26;20467;-48
2024/04/24 04:48:22;;;;;;;1.80;1.70;;;11.60;82.60;;;;;;5461774;26;20548;-48
2024/04/24 04:50:52;;;;;;;2.23;1.87;;;11.60;82.70;;;;;;5445756;26;21158;-48
2024/04/24 04:53:22;;;;;;;2.27;1.37;;;11.60;82.70;;;;;;5446368;26;20493;-48
2024/04/24 04:55:51;;;;;;;2.50;1.80;;;11.60;82.70;;;;;;5468360;26;20453;-48
2024/04/24 04:58:24;;;;;;;1.30;1.20;;;11.60;82.70;;;;;;5466554;26;20459;-47
2024/04/24 05:00:54;;;;;;;1.80;1.70;;;11.60;82.80;;;;;;5444427;26;20521;-48
2024/04/24 05:03:24;;;;;;;1.60;1.50;;;11.60;83.00;;;;;;5440152;26;20515;-48
2024/04/24 05:05:54;;;;;;;2.20;1.70;;;11.60;82.90;;;;;;5461915;26;20502;-49
2024/04/24 05:08:21;;;;;;;1.43;1.33;;;11.60;83.10;;;;;;5461036;26;20524;-49
2024/04/24 05:10:51;;;;;;;1.60;1.50;;;11.60;82.80;;;;;;5456604;25;20473;-47
2024/04/24 05:13:23;;;;;;;1.60;1.50;;;11.60;82.90;;;;;;5460830;26;20499;-47
2024/04/24 05:15:53;;;;;;;2.10;1.90;;;11.60;83.00;;;;;;5445671;26;20475;-47
2024/04/24 05:18:23;;;;;;;3.70;1.73;;;11.60;82.80;;;;;;5453970;26;20470;-48
2024/04/24 05:20:54;;;;;;;1.80;1.50;;;11.60;82.60;;;;;;5440812;26;20469;-48
2024/04/24 05:23:24;;;;;;;1.63;1.53;;;11.60;82.60;;;;;;5450984;26;20575;-48
2024/04/24 05:25:55;;;;;;;1.80;1.33;;;11.60;82.50;;;;;;5472851;26;20476;-49
2024/04/24 05:31:17;;;;;;;1.50;1.40;;;11.60;82.70;;;;;;5467788;26;20558;-47
2024/04/24 05:33:47;;;;;;;2.00;1.77;;;11.60;82.70;;;;;;5458827;26;21064;-47
2024/04/24 05:36:17;;;;;;;1.60;1.50;;;11.60;82.70;;;;;;5464018;26;20814;-48
2024/04/24 05:38:47;;;;;;;1.43;1.30;;;11.60;82.60;;;;;;5465048;26;20476;-47
2024/04/24 05:41:17;;;;;;;2.60;1.50;;;11.60;82.70;;;;;;5464781;26;20907;-47
2024/04/24 05:43:50;;;;;;;1.90;1.73;;;11.60;82.60;;;;;;5455596;26;20458;-51
2024/04/24 05:46:20;;;;;;;1.30;1.20;;;11.60;82.50;;;;;;5471796;26;20824;-48
2024/04/24 05:48:50;;;;;;;1.33;1.23;;;11.60;82.50;;;;;;5461305;26;20924;-48
2024/04/24 05:51:24;;;;;;;1.67;1.57;;;11.50;82.40;;;;;;5462279;26;20438;-47
2024/04/24 05:53:54;;;;;;;1.60;1.50;;;11.50;82.40;;;;;;5459753;26;20565;-48
2024/04/24 05:56:23;;;;;;;1.60;1.50;;;11.50;82.30;;;;;;5452971;26;20475;-48
2024/04/24 05:59:04;;;;;;;2.33;1.70;;;11.50;83.70;;;;;;5481006;26;20467;-49
2024/04/24 06:01:34;;;;;;;1.97;1.50;;;11.50;82.40;;;;;;5459893;26;20520;-48
2024/04/24 06:04:03;;;;;;;1.47;1.37;;;11.50;82.50;;;;;;5462389;26;21023;-48
2024/04/24 06:06:33;;;;;;;1.63;1.47;;;11.50;82.50;;;;;;5444454;26;20458;-48
2024/04/24 06:09:03;;;;;;;2.20;1.70;;;11.50;82.50;;;;;;5462148;26;20471;-48
2024/04/24 06:11:33;;;;;;;1.53;1.40;;;11.50;82.30;;;;;;5433522;26;20803;-48
2024/04/24 06:14:06;;;;;;;1.40;1.30;;;11.50;82.30;;;;;;5444723;26;20568;-48
2024/04/24 06:16:35;;;;;;;1.77;1.67;;;11.50;82.40;;;;;;5471100;26;20502;-47
2024/04/24 06:19:05;;;;;;;2.00;1.63;;;11.50;82.10;;;;;;5448823;26;20451;-47
2024/04/24 06:21:35;;;;;;;1.40;1.30;;;11.50;82.30;;;;;;5464789;26;20592;-47
2024/04/24 06:24:05;;;;;;;2.40;1.37;;;11.50;82.40;;;;;;5449688;26;20468;-47
2024/04/24 06:26:41;;;;;;;1.97;1.73;;;11.50;82.30;;;;;;5474622;26;20526;-47
2024/04/24 06:29:17;;;;;;;2.03;1.80;;;11.50;82.20;;;;;;5462362;26;20452;-48
2024/04/24 06:31:47;;;;;;;2.30;1.63;;;11.50;82.30;;;;;;5463315;26;20469;-49
2024/04/24 06:34:17;;;;;;;2.60;1.67;;;11.50;82.20;;;;;;5443033;26;20521;-48
2024/04/24 06:36:48;;;;;;;2.20;1.60;;;11.50;82.10;;;;;;5458989;26;20510;-48
2024/04/24 06:39:17;;;;;;;2.00;1.90;;;11.50;82.20;;;;;;5455613;26;20462;-49
2024/04/24 06:41:48;;;;;;;3.27;1.63;;;11.50;82.30;;;;;;5451892;26;20508;-50
2024/04/24 06:44:20;;;;;;;1.37;1.27;;;11.40;82.00;;;;;;5442035;26;20523;-48
2024/04/24 06:46:50;;;;;;;3.43;1.80;;;11.50;83.60;;;;;;5475658;26;20469;-46
2024/04/24 06:49:20;;;;;;;2.90;1.67;;;11.40;82.30;;;;;;5457595;26;20802;-48
2024/04/24 06:51:50;;;;;;;1.30;1.17;;;11.40;82.40;;;;;;5474146;26;20559;-50
2024/04/24 06:54:20;;;;;;;1.53;1.17;;;11.40;82.40;;;;;;5459213;26;20461;-48
2024/04/24 06:56:50;;;;;;;1.47;1.37;;;11.40;82.40;;;;;;5460442;26;20955;-48
2024/04/24 06:59:22;;;;;;;2.20;1.33;;;11.40;82.40;;;;;;5459862;26;20614;-48
2024/04/24 07:01:52;;;;;;;1.80;1.70;;;11.40;82.30;;;;;;5460462;26;20569;-48
2024/04/24 07:04:24;;;;;;;2.10;1.90;;;11.40;82.30;;;;;;5459296;26;20548;-48
2024/04/24 07:06:51;;;;;;;2.80;2.10;;;11.40;82.50;;;;;;5436881;26;20470;-49
2024/04/24 07:09:21;;;;;;;1.60;1.50;;;11.40;82.40;;;;;;5470646;26;20465;-47
2024/04/24 07:11:51;;;;;;;2.57;1.70;;;11.40;82.50;;;;;;5455770;26;20924;-47
2024/04/24 07:14:23;;;;;;;2.40;1.50;;;11.40;82.40;;;;;;5453300;26;20876;-48
2024/04/24 07:16:53;;;;;;;2.73;1.90;;;11.40;82.50;;;;;;5434459;26;20481;-47
2024/04/24 07:19:24;;;;;;;1.73;1.63;;;11.40;82.40;;;;;;5467274;26;20506;-47
2024/04/24 07:21:51;;;;;;;1.60;1.43;;;11.40;82.50;;;;;;5460164;26;20788;-47
2024/04/24 07:24:23;;;;;;;2.10;1.90;;;11.40;82.50;;;;;;5465640;26;20469;-48
2024/04/24 07:26:53;;;;;;;1.90;1.80;;;11.40;82.50;;;;;;5435638;26;20631;-48
2024/04/24 07:29:26;;;;;;;2.13;1.90;;;11.40;82.70;;;;;;5465389;26;20548;-48
2024/04/24 07:31:56;;;;;;;3.30;1.70;;;11.40;82.60;;;;;;5459415;26;20670;-48
2024/04/24 07:34:28;;;;;;;1.83;1.60;;;11.40;82.80;;;;;;5473774;26;20568;-48
2024/04/24 07:36:58;;;;;;;3.40;1.80;;;11.40;82.70;;;;;;5429786;26;20466;-47
2024/04/24 07:39:29;;;;;;;1.50;1.40;;;11.40;82.60;;;;;;5473590;26;20469;-48
2024/04/24 07:41:59;;;;;;;2.00;1.40;;;11.30;82.60;;;;;;5466824;26;20470;-48
2024/04/24 07:44:32;;;;;;;1.60;1.47;;;11.40;82.70;;;;;;5470517;26;20461;-48
2024/04/24 07:47:03;;;;;;;1.97;1.40;;;11.30;82.70;;;;;;5455951;26;20570;-47
2024/04/24 07:49:33;;;;;;;2.30;1.63;;;11.30;83.70;;;;;;5468432;26;20458;-48
2024/04/24 07:52:03;;;;;;;2.20;1.73;;;11.30;83.80;;;;;;5457712;26;21058;-49
2024/04/24 07:54:39;;;;;;;1.53;1.43;;;11.30;82.60;;;;;;5465356;26;21135;-48
2024/04/24 07:57:14;;;;;;;3.70;1.40;;;11.30;82.60;;;;;;5467203;26;20506;-48
2024/04/24 07:59:49;;;;;;;2.10;1.90;;;11.30;82.70;;;;;;5457662;26;20792;-49
2024/04/24 08:02:19;;;;;;;2.43;1.67;;;11.30;82.60;;;;;;5457967;26;20498;-48
2024/04/24 08:04:50;;;;;;;2.00;1.50;;;11.30;82.50;;;;;;5462191;26;20442;-48
2024/04/24 08:07:20;;;;;;;2.03;1.47;;;11.30;82.60;;;;;;5471145;26;20450;-48
2024/04/24 08:09:50;;;;;;;1.97;1.67;;;11.30;82.70;;;;;;5478518;26;20565;-48
2024/04/24 08:12:21;;;;;;;1.67;1.57;;;11.30;82.70;;;;;;5461975;26;20823;-48
2024/04/24 08:14:54;;;;;;;2.33;1.40;;;11.30;82.60;;;;;;5456576;26;20463;-48
2024/04/24 08:17:24;;;;;;;1.73;1.43;;;11.30;82.50;;;;;;5460448;26;20565;-49
2024/04/24 08:19:54;;;;;;;2.80;1.97;;;11.30;82.70;;;;;;5463751;26;20451;-48
2024/04/24 08:22:24;;;;;;;1.63;1.43;;;11.30;82.70;;;;;;5447274;26;20477;-47
2024/04/24 08:24:55;;;;;;;2.33;1.50;;;11.30;82.60;;;;;;5449129;26;20507;-47
2024/04/24 08:27:25;;;;;;;3.70;1.80;;;11.40;82.60;;;;;;5427889;26;20479;-49
2024/04/24 08:29:59;;;;;;;1.93;1.40;;;11.30;82.40;;;;;;5441695;26;20476;-49
2024/04/24 08:32:29;;;;;;;2.00;1.80;;;11.30;82.50;;;;;;5431820;26;20586;-47
2024/04/24 08:35:00;;;;;;;2.00;1.77;;;11.30;82.40;;;;;;5459870;26;20451;-49
2024/04/24 08:37:30;;;;;;;1.90;1.80;;;11.30;82.50;;;;;;5444879;26;20568;-47
2024/04/24 08:40:00;;;;;;;1.90;1.63;;;11.30;82.40;;;;;;5451320;26;20531;-47
2024/04/24 08:42:31;;;;;;;1.83;1.23;;;11.30;82.30;;;;;;5441544;26;20578;-47
2024/04/24 08:45:04;;;;;;;2.40;1.27;;;11.40;82.60;;;;;;5447464;26;20928;-47
2024/04/24 08:47:35;;;;;;;2.03;1.63;;;11.30;82.40;;;;;;5443576;26;20831;-47
2024/04/24 08:50:08;;;;;;;2.80;1.63;;;11.40;82.30;;;;;;5451428;26;20453;-46
2024/04/24 08:52:46;;;;;;;4.53;1.50;;;11.30;82.20;;;;;;5448906;26;20454;-47
2024/04/24 08:55:19;;;;;;;1.60;1.50;;;11.30;82.10;;;;;;5446878;26;20462;-47
2024/04/24 08:57:51;;;;;;;2.50;1.33;;;11.30;82.10;;;;;;5454685;26;20461;-47
2024/04/24 09:00:26;;;;;;;1.50;1.40;;;11.30;82.20;;;;;;5403922;26;20475;-47
2024/04/24 09:03:05;;;;;;;2.00;1.77;;;11.30;82.20;;;;;;5454003;26;20463;-47
2024/04/24 09:05:37;;;;;;;1.97;1.77;;;11.30;83.40;;;;;;5441330;26;20515;-47
2024/04/24 09:08:09;;;;;;;1.97;1.43;;;11.30;82.00;;;;;;5439448;26;20622;-47
2024/04/24 09:10:40;;;;;;;2.17;1.63;;;11.30;82.10;;;;;;5467867;26;20811;-47
2024/04/24 09:13:10;;;;;;;2.90;1.40;;;11.30;82.10;;;;;;5461516;26;20872;-47
2024/04/24 09:15:48;;;;;;;2.07;1.87;;;11.30;82.20;;;;;;5467843;26;20842;-47
2024/04/24 09:18:18;;;;;;;1.83;1.27;;;11.30;82.20;;;;;;5466833;26;20452;-47
2024/04/24 09:20:52;;;;;;;2.10;1.50;;;11.30;82.20;;;;;;5460807;26;20454;-46
2024/04/24 09:23:24;;;;;;;2.23;1.80;;;11.30;82.20;;;;;;5435220;26;20462;-47
2024/04/24 09:25:55;;;;;;;2.93;1.60;;;11.30;82.30;;;;;;5469442;26;20507;-47
2024/04/24 09:28:25;;;;;;;3.03;1.50;;;11.30;82.30;;;;;;5459454;26;20544;-47
2024/04/24 09:31:00;;;;;;;1.50;1.40;;;11.30;82.30;;;;;;5462668;26;20591;-46
2024/04/24 09:33:30;;;;;;;1.83;1.50;;;11.30;82.50;;;;;;5472124;26;20524;-47
2024/04/24 09:36:00;;;;;;;1.73;1.60;;;11.30;82.40;;;;;;5442053;26;21027;-47
2024/04/24 09:38:30;;;;;;;2.10;1.30;;;11.30;82.50;;;;;;5471725;26;20562;-47
2024/04/24 09:41:01;;;;;;;1.53;1.43;;;11.30;82.50;;;;;;5475528;26;20513;-47
2024/04/24 09:43:32;;;;;;;1.47;1.30;;;11.30;82.30;;;;;;5477797;26;20470;-47
2024/04/24 09:46:06;;;;;;;2.33;1.20;;;11.30;82.40;;;;;;5439995;26;20464;-47
2024/04/24 09:48:37;;;;;;;2.60;1.47;;;11.30;82.50;;;;;;5469628;26;20471;-47
2024/04/24 09:51:10;;;;;;;2.33;2.00;;;11.30;82.50;;;;;;5480730;26;20454;-47
2024/04/24 09:53:40;;;;;;;2.03;1.33;;;11.30;82.30;;;;;;5470519;26;20804;-47
2024/04/24 09:56:20;;;;;;;1.80;1.40;;;11.30;82.50;;;;;;5474551;26;20453;-47
2024/04/24 09:58:53;;;;;;;1.80;1.70;;;11.30;82.50;;;;;;5459702;26;20454;-49
2024/04/24 10:01:29;;;;;;;4.07;1.47;;;11.30;82.60;;;;;;5481475;26;20522;-48
2024/04/24 10:04:00;;;;;;;2.23;1.37;;;11.30;82.80;;;;;;5476284;26;21029;-48
2024/04/24 10:06:32;;;;;;;1.40;1.30;;;11.30;82.70;;;;;;5485059;26;20472;-48
2024/04/24 10:09:05;;;;;;;1.80;1.57;;;11.30;82.80;;;;;;5467666;25;20457;-49
2024/04/24 10:11:39;;;;;;;2.60;1.60;;;11.30;82.70;;;;;;5475137;26;20452;-49
2024/04/24 10:14:14;;;;;;;2.87;1.40;;;11.30;82.80;;;;;;5456786;26;20514;-48
2024/04/24 10:16:50;;;;;;;1.50;1.40;;;11.30;82.70;;;;;;5475094;26;20462;-47
2024/04/24 10:19:23;;;;;;;2.60;1.70;;;11.30;82.90;;;;;;5474003;26;20468;-47
2024/04/24 10:21:54;;;;;;;1.63;1.53;;;11.30;82.90;;;;;;5472167;26;20516;-48
2024/04/24 10:24:25;;;;;;;1.80;1.40;;;11.30;82.90;;;;;;5478959;26;20923;-48
2024/04/24 10:26:57;;;;;;;4.03;1.80;;;11.30;82.90;;;;;;5470496;26;20797;-48
2024/04/24 10:29:28;;;;;;;1.40;1.30;;;11.30;82.90;;;;;;5430738;26;20529;-49
2024/04/24 10:32:04;;;;;;;1.67;1.57;;;11.30;82.80;;;;;;5458991;26;20459;-48
2024/04/24 10:34:35;;;;;;;1.57;1.30;;;11.30;82.80;;;;;;5461973;26;20455;-48
2024/04/24 10:37:05;;;;;;;1.60;1.47;;;11.30;82.80;;;;;;5464228;26;20818;-47
2024/04/24 10:39:42;;;;;;;1.40;1.30;;;11.30;82.60;;;;;;5470831;26;20511;-48
2024/04/24 10:42:13;;;;;;;2.37;1.50;;;11.30;82.50;;;;;;5472690;26;20505;-48
2024/04/24 10:44:44;;;;;;;2.33;1.60;;;11.30;82.50;;;;;;5461830;26;20855;-48
2024/04/24 10:47:22;;;;;;;1.67;1.50;;;11.30;82.10;;;;;;5467781;26;20441;-48
2024/04/24 10:49:56;;;;;;;1.57;1.40;;;11.30;82.30;;;;;;5437024;26;20453;-48
2024/04/24 10:52:27;;;;;;;6.83;1.77;;;11.30;82.20;;;;;;5470592;26;20468;-48
2024/04/24 10:55:07;;;;;;;6.33;2.13;;;11.30;80.30;;;;;;5466771;26;20519;-48
2024/04/24 10:57:47;;;;;;;5.87;1.90;;;11.20;76.80;;;;;;5475103;26;21065;-48
2024/04/24 11:00:18;;;;;;;2.33;2.00;;;11.20;77.50;;;;;;5463186;26;20467;-48
2024/04/24 11:02:53;;;;;;;2.27;1.70;;;11.20;78.80;;;;;;5467100;26;20518;-48
2024/04/24 11:05:35;;;;;;;2.17;1.80;;;11.20;79.30;;;;;;5470537;26;20456;-49
2024/04/24 11:08:08;;;;;;;2.03;1.83;;;11.30;79.50;;;;;;5472618;26;20948;-47
2024/04/24 11:10:38;;;;;;;4.20;1.87;;;11.30;79.90;;;;;;5460500;26;20481;-49
2024/04/24 11:13:15;;;;;;;5.73;1.93;;;11.30;79.90;;;;;;5465670;25;20509;-47
2024/04/24 11:15:45;;;;;;;3.77;2.20;;;11.40;78.70;;;;;;5463903;26;20473;-46
2024/04/24 11:18:35;;;;;;;1.47;1.23;;;11.50;76.30;;;;;;5460117;26;20654;-48
2024/04/24 11:21:06;;;;;;;3.50;1.70;;;11.50;73.70;;;;;;5461237;26;20463;-48
2024/04/24 11:23:36;;;;;;;3.60;1.57;;;11.50;73.80;;;;;;5455937;26;20465;-48
2024/04/24 11:26:06;;;;;;;4.80;1.77;;;11.40;75.70;;;;;;5442861;26;20456;-47
2024/04/24 11:28:36;;;;;;;3.10;1.63;;;11.40;76.70;;;;;;5459364;26;20476;-47
2024/04/24 11:31:06;;;;;;;3.93;1.87;;;11.40;77.20;;;;;;5460098;26;20593;-47
2024/04/24 11:33:42;;;;;;;3.40;1.80;;;11.40;77.60;;;;;;5437474;26;20503;-47
2024/04/24 11:36:14;;;;;;;2.93;1.73;;;11.40;78.30;;;;;;5463576;26;20501;-48
2024/04/24 11:38:44;;;;;;;2.60;2.00;;;11.30;78.50;;;;;;5460320;26;20913;-47
2024/04/24 11:41:15;;;;;;;3.27;2.03;;;11.30;78.30;;;;;;5449657;26;20511;-47
2024/04/24 11:43:45;;;;;;;3.17;1.67;;;11.30;78.70;;;;;;5444434;26;20455;-48
2024/04/24 11:46:20;;;;;;;4.70;2.30;;;11.30;78.50;;;;;;5472616;26;20468;-49
2024/04/24 11:48:54;;;;;;;3.27;1.60;;;11.30;78.90;;;;;;5439836;26;20989;-51
2024/04/24 11:51:27;;;;;;;2.07;1.17;;;11.30;79.00;;;;;;5475883;26;20464;-49
2024/04/24 11:53:58;;;;;;;2.17;1.23;;;11.30;79.20;;;;;;5464267;26;20561;-48
2024/04/24 11:56:28;;;;;;;6.10;1.60;;;11.30;79.20;;;;;;5459362;26;20446;-48
2024/04/24 11:59:02;;;;;;;3.37;1.73;;;11.30;79.30;;;;;;5473108;26;20480;-48
2024/04/24 12:01:34;;;;;;;2.00;1.60;;;11.30;79.50;;;;;;5475824;26;20519;-48
2024/04/24 12:04:07;;;;;;;2.30;1.83;;;11.30;79.50;;;;;;5450829;26;20389;-47
2024/04/24 12:06:41;;;;;;;7.10;1.70;;;11.40;78.20;;;;;;5441892;26;20268;-49
2024/04/24 12:09:14;;;;;;;2.37;1.40;;;11.40;78.90;;;;;;5453418;26;20465;-48
2024/04/24 12:11:45;;;;;;;2.90;2.10;;;11.40;79.30;;;;;;5473538;26;21095;-48
2024/04/24 12:14:18;;;;;;;2.27;1.60;;;11.40;79.20;;;;;;5464045;26;20523;-48
2024/04/24 12:16:48;;;;;;;1.50;1.03;;;11.40;79.20;;;;;;5456346;26;20457;-48
2024/04/24 12:19:21;;;;;;;1.97;1.53;;;11.40;79.40;;;;;;5463737;26;20578;-49
2024/04/24 12:21:51;;;;;;;4.77;3.53;;;11.40;79.30;;;;;;5471124;26;20474;-47
2024/04/24 12:24:22;;;;;;;4.43;2.90;;;11.40;77.10;;;;;;5469602;26;20520;-48
2024/04/24 12:26:52;;;;;;;3.70;2.23;;;11.40;77.20;;;;;;5475935;26;20464;-48
2024/04/24 12:29:22;;;;;;;3.50;2.47;;;11.40;78.40;;;;;;5457833;26;20456;-48
2024/04/24 12:31:53;;;;;;;3.10;2.33;;;11.40;78.90;;;;;;5467106;26;20455;-48
2024/04/24 12:34:25;;;;;;;3.83;2.30;;;11.40;79.10;;;;;;5456320;26;20516;-47
2024/04/24 12:36:56;;;;;;;6.00;2.80;;;11.40;79.20;;;;;;5454589;26;20504;-48
2024/04/24 12:39:26;;;;;;;3.73;2.10;;;11.40;79.40;;;;;;5425449;26;20463;-49
2024/04/24 12:41:56;;;;;;;4.23;2.10;;;11.40;79.70;;;;;;5462128;26;20473;-48
2024/04/24 12:44:28;;;;;;;2.00;1.87;;;11.40;79.80;;;;;;5464405;26;20561;-48
2024/04/24 12:46:58;;;;;;;5.40;2.07;;;11.40;79.80;;;;;;5460405;26;20500;-47
2024/04/24 12:49:31;;;;;;;2.97;2.67;;;11.40;80.20;;;;;;5460770;26;20452;-48
2024/04/24 12:52:00;;;;;;;3.83;1.80;;;11.40;80.30;;;;;;5459936;26;20999;-48
2024/04/24 12:54:30;;;;;;;3.70;2.10;;;11.40;80.20;;;;;;5463134;26;20526;-48
2024/04/24 12:57:00;;;;;;;3.70;2.10;;;11.40;80.20;;;;;;5427824;26;20885;-48
2024/04/24 12:59:30;;;;;;;2.03;1.57;;;11.40;80.20;;;;;;5462856;26;20526;-48
2024/04/24 13:02:00;;;;;;;2.73;1.70;;;11.40;80.20;;;;;;5460975;26;20453;-48
2024/04/24 13:04:33;;;;;;;2.83;1.70;;;11.40;80.30;;;;;;5456935;26;21030;-48
2024/04/24 13:07:03;;;;;;;1.90;1.50;;;11.40;80.20;;;;;;5427746;26;20583;-47
2024/04/24 13:09:33;;;;;;;2.40;2.00;;;11.40;80.30;;;;;;5464007;26;21114;-48
2024/04/24 13:12:03;;;;;;;3.33;1.97;;;11.40;80.20;;;;;;5471307;26;21102;-48
2024/04/24 13:14:33;;;;;;;2.87;1.60;;;11.40;80.20;;;;;;5442996;26;21026;-48